Time;durP1;ratioP1;P1;durP2;ratioP2;P2;SDS_P1;SDS_P2;PMS_P1;PMS_P2;Temp;Humidity;BMP_temperature;BMP_pressure;BME280_temperature;BME280_humidity;BME280_pressure;Samples;Min_cycle;Max_cycle;Signal;HPM_P1;HPM_P2
2021/11/18 00:01:21;;;;;;;25.90;21.70;;;;;;;16.58;31.70;95002.69;5056883;28;20049;-56
2021/11/18 00:03:48;;;;;;;25.13;21.80;;;;;;;16.38;32.06;94995.34;5056417;28;20052;-59
2021/11/18 00:06:16;;;;;;;24.40;20.90;;;;;;;17.06;30.39;95001.06;5056333;28;20300;-57
2021/11/18 00:08:44;;;;;;;26.63;22.02;;;;;;;16.76;31.24;95000.91;5056031;28;20049;-58
2021/11/18 00:11:13;;;;;;;25.10;20.88;;;;;;;16.76;31.29;95000.91;5055948;28;20048;-49
2021/11/18 00:13:45;;;;;;;25.63;20.83;;;;;;;16.72;31.71;95010.53;5056751;28;20052;-47
2021/11/18 00:16:12;;;;;;;;;;;;;;;16.97;31.16;94997.66;5057011;28;20049;-49
2021/11/18 00:18:40;;;;;;;24.70;20.77;;;;;;;17.10;30.72;95000.13;5064112;28;19923;-53
2021/11/18 00:21:11;;;;;;;24.40;20.83;;;;;;;17.07;30.87;95005.25;5065156;28;20360;-50
2021/11/18 00:23:41;;;;;;;27.08;21.58;;;;;;;16.65;31.59;95010.16;5052899;28;20052;-49
2021/11/18 00:26:10;;;;;;;23.98;20.67;;;;;;;16.85;31.10;94998.25;5055295;28;20071;-53
2021/11/18 00:28:38;;;;;;;25.42;20.83;;;;;;;17.30;30.54;95004.00;5055012;28;20049;-51
2021/11/18 00:31:07;;;;;;;25.77;21.17;;;;;;;17.15;30.66;94997.31;5056175;28;20044;-49
2021/11/18 00:33:35;;;;;;;25.15;21.05;;;;;;;16.85;31.33;95008.81;5055473;28;20044;-47
2021/11/18 00:36:06;;;;;;;23.83;20.48;;;;;;;17.48;30.24;94999.50;5055483;28;20052;-47
2021/11/18 00:38:33;;;;;;;22.55;19.70;;;;;;;16.95;31.17;94996.09;5055730;28;20044;-53
2021/11/18 00:41:01;;;;;;;25.08;20.98;;;;;;;17.02;31.29;95000.91;5055874;28;20053;-46
2021/11/18 00:43:28;;;;;;;25.67;20.27;;;;;;;17.91;29.71;94995.97;5066445;28;20079;-52
2021/11/18 00:45:56;;;;;;;23.60;20.83;;;;;;;16.87;31.54;94996.09;5056179;28;20052;-48
2021/11/18 00:48:24;;;;;;;23.27;20.58;;;;;;;17.01;31.56;94991.44;5060603;28;20044;-48
2021/11/18 00:51:00;;;;;;;22.63;20.20;;;;;;;16.73;31.80;94995.47;5067975;28;20435;-50
2021/11/18 00:53:28;;;;;;;24.73;21.05;;;;;;;16.74;31.48;94991.75;5009955;28;20488;-57
2021/11/18 00:55:58;;;;;;;23.42;20.75;;;;;;;17.46;30.23;94991.09;5000219;28;20049;-47
2021/11/18 00:58:26;;;;;;;25.30;21.48;;;;;;;16.62;31.36;94987.78;5034948;28;20053;-47
2021/11/18 01:00:54;;;;;;;24.70;19.90;;;;;;;16.84;30.97;94976.34;5018121;28;20057;-48
2021/11/18 01:03:23;;;;;;;23.38;20.48;;;;;;;17.46;29.74;94981.31;5017513;28;20053;-56
2021/11/18 01:05:52;;;;;;;24.38;20.38;;;;;;;17.56;29.62;94993.41;5035736;28;20353;-57
2021/11/18 01:08:20;;;;;;;22.80;20.25;;;;;;;17.53;29.56;94997.44;5034081;28;20045;-58
2021/11/18 01:10:55;;;;;;;25.70;20.70;;;;;;;16.93;30.49;94985.06;5017650;28;20375;-57
2021/11/18 01:13:23;;;;;;;23.48;19.55;;;;;;;17.59;29.34;94984.84;5035549;28;20440;-55
2021/11/18 01:15:50;;;;;;;25.65;20.95;;;;;;;17.27;29.89;94991.44;5017385;28;20049;-56
2021/11/18 01:18:21;;;;;;;25.52;20.77;;;;;;;17.66;29.07;94990.41;5017438;28;20045;-58
2021/11/18 01:20:51;;;;;;;24.08;21.02;;;;;;;17.28;29.70;94995.63;5017168;28;20052;-57
2021/11/18 01:23:21;;;;;;;25.02;20.02;;;;;;;17.72;28.80;95004.28;5033998;28;20053;-58
2021/11/18 01:25:49;;;;;;;21.58;19.27;;;;;;;17.05;29.72;95002.94;5017981;28;20713;-57
2021/11/18 01:28:16;;;;;;;25.08;20.50;;;;;;;17.19;29.58;95003.56;5033275;28;20056;-59
2021/11/18 01:30:44;;;;;;;24.10;19.90;;;;;;;17.79;28.60;95008.00;5035248;28;20474;-46
2021/11/18 01:33:14;;;;;;;24.08;19.70;;;;;;;17.54;29.23;94992.94;5035648;28;20041;-47
2021/11/18 01:35:45;;;;;;;24.80;21.30;;;;;;;18.11;28.38;94997.91;5035519;28;20052;-60
2021/11/18 01:38:13;;;;;;;28.02;21.92;;;;;;;18.10;28.13;94993.72;5033942;28;20041;-56
2021/11/18 01:40:48;;;;;;;26.70;21.52;;;;;;;18.33;27.83;94995.00;5033193;28;20056;-48
2021/11/18 01:43:42;;;;;;;35.42;29.85;;;;;;;18.57;27.47;94994.41;5034074;28;20076;-47
2021/11/18 01:46:15;;;;;;;36.33;31.10;;;;;;;17.76;28.21;94989.34;5035136;28;20049;-59
2021/11/18 01:48:44;;;;;;;35.33;28.10;;;;;;;17.49;28.70;94985.94;5034109;28;20041;-57
2021/11/18 01:51:13;;;;;;;38.80;30.15;;;;;;;17.05;29.31;94981.03;5033909;28;20368;-46
2021/11/18 01:53:46;;;;;;;35.10;28.75;;;;;;;17.30;28.98;94987.38;5033764;28;20045;-46
2021/11/18 01:56:19;;;;;;;33.55;26.25;;;;;;;16.75;29.79;94991.44;5033824;28;20052;-52
2021/11/18 01:58:53;;;;;;;29.77;24.88;;;;;;;17.05;29.33;94989.72;5033144;28;20048;-59
2021/11/18 02:01:51;;;;;;;31.90;25.42;;;;;;;16.56;29.97;94986.41;5003894;28;20045;-47
2021/11/18 02:04:57;;;;;;;28.90;23.67;;;;;;;16.61;29.37;94988.88;5015200;28;20050;-57
2021/11/18 02:07:26;;;;;;;26.13;22.77;;;;;;;17.03;28.91;94989.25;5009241;28;20052;-54
2021/11/18 02:09:53;;;;;;;35.22;27.20;;;;;;;17.26;28.57;94993.28;5051528;28;20045;-46
2021/11/18 02:12:26;;;;;;;33.65;26.83;;;;;;;16.90;28.88;94982.25;5053374;28;20056;-56
2021/11/18 02:14:55;;;;;;;28.67;25.65;;;;;;;16.67;29.61;94988.78;5048097;28;20049;-55
2021/11/18 02:17:25;;;;;;;31.02;26.27;;;;;;;17.00;29.08;94984.59;5052920;28;20052;-57
2021/11/18 02:20:04;;;;;;;32.75;25.25;;;;;;;17.56;28.38;94990.75;5053147;28;20379;-47
2021/11/18 02:22:32;;;;;;;30.58;25.55;;;;;;;17.45;28.82;94994.84;5034690;28;20057;-53
2021/11/18 02:25:04;;;;;;;32.67;27.65;;;;;;;17.13;28.35;94994.22;5016670;28;20049;-48
2021/11/18 02:27:32;;;;;;;31.15;27.10;;;;;;;16.47;29.66;94996.16;5032188;28;20055;-46
2021/11/18 02:30:00;;;;;;;29.10;25.10;;;;;;;16.94;29.28;94985.84;5016621;28;20349;-46
2021/11/18 02:32:34;;;;;;;28.98;23.63;;;;;;;16.67;29.50;94986.16;5033038;28;20049;-48
2021/11/18 02:35:08;;;;;;;28.98;24.58;;;;;;;16.89;29.08;94999.19;5032950;28;20673;-47
2021/11/18 02:37:36;;;;;;;33.20;25.42;;;;;;;16.44;29.17;94999.44;5019901;28;20052;-47
2021/11/18 02:40:04;;;;;;;31.23;23.98;;;;;;;17.11;28.64;94996.41;5035656;28;20052;-48
2021/11/18 02:42:33;;;;;;;28.77;23.92;;;;;;;16.91;28.69;94997.81;5052864;28;20045;-51
2021/11/18 02:45:01;;;;;;;30.30;24.55;;;;;;;17.49;28.40;95011.63;5052731;28;20068;-58
2021/11/18 02:47:28;;;;;;;31.67;26.17;;;;;;;17.48;28.00;95012.69;5052913;28;20053;-56
2021/11/18 02:49:56;;;;;;;29.33;23.65;;;;;;;17.31;28.09;95010.06;5052027;28;20045;-55
2021/11/18 02:52:29;;;;;;;35.35;24.42;;;;;;;16.58;29.22;95013.25;5034245;28;20325;-56
2021/11/18 02:54:56;;;;;;;;;;;;;;;16.46;29.58;95012.31;5041049;28;20052;-58
2021/11/18 02:57:24;;;;;;;29.88;23.05;;;;;;;16.86;28.89;95010.38;5054280;28;19916;-55
2021/11/18 02:59:51;;;;;;;27.67;22.52;;;;;;;16.54;29.48;95020.25;5042852;28;20056;-57
2021/11/18 03:02:19;;;;;;;28.05;23.63;;;;;;;16.28;29.90;95020.16;5059317;28;20056;-56
2021/11/18 03:04:46;;;;;;;29.73;24.10;;;;;;;16.76;29.39;95010.69;5059282;28;20048;-55
2021/11/18 03:07:13;;;;;;;25.85;22.38;;;;;;;17.27;28.14;95020.50;5059352;28;20371;-56
2021/11/18 03:09:40;;;;;;;25.85;22.73;;;;;;;16.82;29.12;95014.72;5050817;28;20045;-47
2021/11/18 03:12:07;;;;;;;26.00;23.17;;;;;;;17.34;28.38;95014.72;5078451;28;20481;-48
2021/11/18 03:14:35;;;;;;;25.77;22.17;;;;;;;16.93;28.84;95013.34;5062681;28;20059;-50
2021/11/18 03:17:03;;;;;;;25.67;22.33;;;;;;;16.95;29.24;95008.53;5079370;28;20059;-50
2021/11/18 03:19:49;;;;;;;27.88;24.52;;;;;;;18.02;27.77;95005.91;5078592;28;20557;-55
2021/11/18 03:22:17;;;;;;;27.00;23.50;;;;;;;17.70;28.17;95007.25;5036613;28;20057;-58
2021/11/18 03:24:44;;;;;;;27.95;23.95;;;;;;;16.47;30.38;95012.00;5048589;28;20040;-57
2021/11/18 03:27:12;;;;;;;28.65;24.20;;;;;;;17.36;29.05;95001.97;5057785;28;20047;-56
2021/11/18 03:29:40;;;;;;;27.08;23.52;;;;;;;16.94;29.75;95006.97;5069709;28;20045;-50
2021/11/18 03:32:08;;;;;;;29.52;24.77;;;;;;;16.39;31.01;95002.19;5041399;28;20057;-55
2021/11/18 03:34:36;;;;;;;31.48;25.67;;;;;;;16.06;31.66;95009.69;5041652;28;20053;-55
2021/11/18 03:37:03;;;;;;;31.10;27.65;;;;;;;15.86;32.24;95010.22;5059965;28;20044;-58
2021/11/18 03:39:31;;;;;;;32.70;27.40;;;;;;;15.93;32.08;95011.34;5042431;28;20052;-56
2021/11/18 03:42:06;;;;;;;32.15;27.85;;;;;;;15.82;32.46;95023.22;5061437;28;20040;-56
2021/11/18 03:44:33;;;;;;;32.53;26.48;;;;;;;16.09;32.08;95018.84;5079076;28;20370;-57
2021/11/18 03:47:04;;;;;;;32.58;27.17;;;;;;;15.69;32.77;95026.75;5079186;28;20063;-55
2021/11/18 03:49:35;;;;;;;33.22;26.23;;;;;;;16.26;31.92;95026.84;5061568;28;20075;-53
2021/11/18 03:52:08;;;;;;;28.80;24.95;;;;;;;16.53;31.60;95029.25;5053296;28;20562;-55
2021/11/18 03:54:36;;;;;;;30.60;25.90;;;;;;;16.45;31.57;95027.38;5042473;28;20051;-49
2021/11/18 03:57:05;;;;;;;29.35;24.65;;;;;;;16.51;31.53;95030.63;5033475;28;20374;-48
2021/11/18 03:59:36;;;;;;;31.45;26.35;;;;;;;16.94;30.97;95028.09;5058205;28;20057;-48
2021/11/18 04:02:09;;;;;;;29.85;24.52;;;;;;;16.51;31.93;95020.84;5041692;28;20048;-57
2021/11/18 04:04:45;;;;;;;34.30;28.42;;;;;;;16.86;31.15;95020.94;5037700;28;20064;-50
2021/11/18 04:07:13;;;;;;;33.22;28.10;;;;;;;16.81;31.35;95019.22;5056063;28;20051;-56
2021/11/18 04:09:41;;;;;;;35.78;29.77;;;;;;;17.63;29.66;95006.91;5055073;28;20056;-55
2021/11/18 04:12:11;;;;;;;39.08;31.40;;;;;;;17.80;28.97;95011.41;5040819;28;20470;-48
2021/11/18 04:14:39;;;;;;;32.83;29.00;;;;;;;18.63;27.89;95005.63;5053101;28;20049;-48
2021/11/18 04:17:11;;;;;;;29.27;26.10;;;;;;;18.70;27.52;94995.28;5038873;28;20048;-47
2021/11/18 04:19:39;;;;;;;37.55;31.35;;;;;;;18.96;27.33;94992.44;5042103;28;20052;-49
2021/11/18 04:22:07;;;;;;;42.88;36.92;;;;;;;17.36;29.87;94996.69;5052691;28;20474;-55
2021/11/18 04:24:39;;;;;;;42.08;34.13;;;;;;;18.53;28.05;94998.81;5038777;28;20056;-56
2021/11/18 04:27:06;;;;;;;42.22;35.97;;;;;;;17.76;28.95;94995.41;5038066;28;20041;-55
2021/11/18 04:29:33;;;;;;;38.65;34.38;;;;;;;16.83;31.06;94989.88;5052021;28;20053;-53
2021/11/18 04:32:05;;;;;;;40.58;34.20;;;;;;;16.96;31.13;95004.81;5067020;28;20363;-56
2021/11/18 04:34:34;;;;;;;30.55;26.63;;;;;;;16.54;31.52;95009.69;5036421;28;20064;-55
2021/11/18 04:37:01;;;;;;;27.05;21.80;;;;;;;16.21;32.35;95005.88;5042481;28;20057;-59
2021/11/18 04:39:28;;;;;;;27.77;21.67;;;;;;;16.13;32.35;95006.59;5053201;28;20056;-47
2021/11/18 04:41:56;;;;;;;29.33;22.20;;;;;;;15.87;32.58;95012.56;5054317;28;20463;-57
2021/11/18 04:44:23;;;;;;;26.98;22.80;;;;;;;16.32;32.05;95004.50;5054916;28;20052;-55
2021/11/18 04:46:55;;;;;;;26.15;22.15;;;;;;;16.25;31.72;95009.44;5054893;28;20049;-54
2021/11/18 04:49:23;;;;;;;30.30;21.52;;;;;;;16.81;31.07;95007.88;5055467;28;20052;-56
2021/11/18 04:51:50;;;;;;;27.63;22.42;;;;;;;16.55;31.58;95011.25;5027915;28;20077;-56
2021/11/18 04:54:17;;;;;;;27.75;22.98;;;;;;;17.25;30.41;95012.88;5016168;28;20046;-54
2021/11/18 04:56:44;;;;;;;29.33;21.85;;;;;;;15.95;32.22;95008.41;5013959;28;20049;-55
2021/11/18 04:59:11;;;;;;;29.48;22.75;;;;;;;16.17;32.03;95015.50;5015751;28;20045;-50
2021/11/18 05:01:40;;;;;;;29.88;23.17;;;;;;;16.37;31.65;95016.78;5024879;28;20049;-56
2021/11/18 05:04:08;;;;;;;30.63;23.15;;;;;;;17.38;29.83;95015.66;5035027;28;20448;-54
2021/11/18 05:06:36;;;;;;;29.15;23.60;;;;;;;16.55;31.23;95016.50;5030607;28;20068;-56
2021/11/18 05:09:06;;;;;;;27.10;23.13;;;;;;;17.37;30.15;95014.88;5017631;28;20057;-57
2021/11/18 05:11:34;;;;;;;30.02;24.40;;;;;;;17.19;30.25;95022.06;5034148;28;20045;-63
2021/11/18 05:14:02;;;;;;;30.77;24.33;;;;;;;16.96;30.48;95031.22;5029207;28;20060;-63
2021/11/18 05:16:30;;;;;;;29.13;24.55;;;;;;;16.73;31.11;95035.84;5033494;28;20052;-53
2021/11/18 05:18:57;;;;;;;26.70;23.80;;;;;;;17.14;30.31;95039.91;5026234;28;20444;-56
2021/11/18 05:21:28;;;;;;;28.15;23.05;;;;;;;16.98;30.80;95039.59;5027271;28;20058;-66
2021/11/18 05:23:59;;;;;;;26.88;23.30;;;;;;;16.68;31.32;95049.19;5031429;28;20057;-57
2021/11/18 05:26:27;;;;;;;30.38;25.27;;;;;;;17.74;29.33;95047.84;5034572;28;20042;-55
2021/11/18 05:28:59;;;;;;;31.85;25.38;;;;;;;17.37;29.74;95057.16;5030800;28;20057;-48
2021/11/18 05:31:30;;;;;;;29.33;24.05;;;;;;;17.23;30.02;95057.34;5036446;28;20806;-58
2021/11/18 05:34:21;;;;;;;30.52;24.02;;;;;;;16.91;30.57;95060.38;5030784;28;20363;-59
2021/11/18 05:36:50;;;;;;;31.52;25.60;;;;;;;16.91;30.69;95071.75;5014143;28;20053;-71
2021/11/18 05:39:18;;;;;;;29.48;25.15;;;;;;;17.21;30.69;95064.03;4999043;28;20048;-53
2021/11/18 05:41:52;;;;;;;32.20;26.92;;;;;;;17.47;30.17;95066.66;5033524;28;20053;-67
2021/11/18 05:44:19;;;;;;;33.28;26.98;;;;;;;16.79;31.62;95065.50;5001201;28;20049;-48
2021/11/18 05:46:47;;;;;;;32.60;27.73;;;;;;;16.47;31.96;95072.69;5026928;28;20049;-56
2021/11/18 05:49:14;;;;;;;34.95;28.42;;;;;;;16.06;33.04;95073.00;5034023;28;20052;-47
2021/11/18 05:51:41;;;;;;;30.27;26.63;;;;;;;16.85;31.37;95066.91;5013841;28;20420;-49
2021/11/18 05:54:09;;;;;;;29.73;26.25;;;;;;;16.39;32.36;95060.25;5017340;28;20057;-53
2021/11/18 05:56:38;;;;;;;29.65;24.95;;;;;;;16.19;33.00;95066.09;5017272;28;20045;-57
2021/11/18 05:59:07;;;;;;;31.70;25.73;;;;;;;15.98;33.50;95071.88;5017325;28;20045;-50
2021/11/18 06:01:34;;;;;;;27.92;23.70;;;;;;;16.11;33.11;95079.97;5016458;28;20046;-51
2021/11/18 06:04:03;;;;;;;32.03;25.88;;;;;;;16.54;32.28;95073.03;5017093;28;20045;-50
2021/11/18 06:06:38;;;;;;;34.17;27.95;;;;;;;16.59;32.00;95069.47;5017085;28;20053;-49
2021/11/18 06:09:06;;;;;;;35.63;26.67;;;;;;;16.68;33.31;95048.41;5016854;28;20057;-51
2021/11/18 06:11:38;;;;;;;32.08;25.40;;;;;;;16.67;32.50;95062.69;5032162;28;20041;-48
2021/11/18 06:14:10;;;;;;;31.15;26.52;;;;;;;18.13;29.38;95067.16;5030764;28;20056;-49
2021/11/18 06:16:38;;;;;;;31.73;26.10;;;;;;;17.07;31.15;95069.44;5032032;28;20045;-53
2021/11/18 06:19:06;;;;;;;31.35;27.13;;;;;;;16.61;32.37;95077.84;5034133;28;20056;-53
2021/11/18 06:21:40;;;;;;;29.13;25.42;;;;;;;16.36;32.96;95074.03;5026244;28;20061;-54
2021/11/18 06:24:10;;;;;;;29.73;22.58;;;;;;;16.27;32.81;95083.78;5026165;28;20041;-52
2021/11/18 06:26:44;;;;;;;30.60;24.45;;;;;;;16.64;32.64;95078.00;5030555;28;20053;-53
2021/11/18 06:29:20;;;;;;;32.10;23.33;;;;;;;16.37;33.08;95088.78;5036910;28;20056;-55
2021/11/18 06:31:50;;;;;;;32.53;23.58;;;;;;;16.36;33.09;95081.97;5036286;28;20049;-52
2021/11/18 06:34:18;;;;;;;29.50;24.30;;;;;;;15.96;33.65;95089.84;5051757;28;20060;-51
2021/11/18 06:36:46;;;;;;;28.70;25.52;;;;;;;16.23;33.87;95094.19;5034953;28;20455;-48
2021/11/18 06:39:14;;;;;;;28.92;24.48;;;;;;;16.35;33.04;95080.41;5052823;28;20055;-48
2021/11/18 06:41:45;;;;;;;31.45;24.00;;;;;;;16.67;32.60;95091.75;5035815;28;20060;-48
2021/11/18 06:44:12;;;;;;;29.75;23.45;;;;;;;16.36;33.54;95097.78;5051920;28;20463;-49
2021/11/18 06:46:40;;;;;;;27.75;22.98;;;;;;;16.34;33.62;95095.47;5052502;28;20049;-52
2021/11/18 06:49:10;;;;;;;33.60;22.48;;;;;;;16.25;34.59;95096.50;5052138;28;20049;-48
2021/11/18 06:51:41;;;;;;;32.97;22.30;;;;;;;16.60;35.18;95092.91;5023540;28;20053;-51
2021/11/18 06:54:13;;;;;;;29.90;24.23;;;;;;;16.71;33.39;95096.09;5052875;28;20060;-51
2021/11/18 06:56:44;;;;;;;31.48;26.02;;;;;;;16.80;33.47;95093.47;5046099;28;20053;-50
2021/11/18 06:59:13;;;;;;;39.28;27.17;;;;;;;16.90;34.53;95098.44;5051940;28;20051;-53
2021/11/18 07:01:42;;;;;;;32.42;25.88;;;;;;;16.86;33.25;95111.50;5052562;28;20053;-53
2021/11/18 07:04:13;;;;;;;34.90;24.13;;;;;;;16.30;33.75;95112.97;5069289;28;20486;-52
2021/11/18 07:06:41;;;;;;;29.35;25.65;;;;;;;16.25;33.75;95115.75;5068965;28;20069;-51
2021/11/18 07:09:15;;;;;;;30.92;25.80;;;;;;;16.34;35.04;95111.28;5061396;28;20051;-54
2021/11/18 07:12:02;;;;;;;30.77;25.55;;;;;;;15.77;34.87;95107.72;5053240;28;20049;-48
2021/11/18 07:14:33;;;;;;;27.55;23.98;;;;;;;15.54;34.96;95114.03;5052503;28;20056;-51
2021/11/18 07:17:01;;;;;;;28.60;24.42;;;;;;;15.91;34.54;95121.63;5052210;28;20447;-51
2021/11/18 07:19:28;;;;;;;32.45;25.20;;;;;;;15.48;35.04;95126.56;5052379;28;20045;-48
2021/11/18 07:21:56;;;;;;;29.80;24.80;;;;;;;15.61;34.94;95140.78;5035103;28;20056;-53
2021/11/18 07:24:29;;;;;;;29.92;25.40;;;;;;;15.66;34.28;95117.75;5052009;28;20045;-52
2021/11/18 07:26:56;;;;;;;37.53;28.65;;;;;;;15.83;34.14;95126.81;5053143;28;20048;-54
2021/11/18 07:29:23;;;;;;;42.25;30.80;;;;;;;15.59;34.54;95127.13;5035710;28;20045;-53
2021/11/18 07:31:52;;;;;;;39.92;30.45;;;;;;;15.72;34.76;95121.03;5040309;28;20494;-50
2021/11/18 07:34:19;;;;;;;41.03;31.33;;;;;;;16.02;34.36;95130.84;5053449;28;20052;-49
2021/11/18 07:36:53;;;;;;;42.15;31.23;;;;;;;16.07;33.98;95123.88;5068686;28;20060;-49
2021/11/18 07:39:30;;;;;;;44.28;30.70;;;;;;;15.99;34.09;95126.16;5034969;28;20037;-48
2021/11/18 07:41:57;;;;;;;39.55;32.72;;;;;;;15.86;34.18;95132.28;5034925;28;20056;-49
2021/11/18 07:44:43;;;;;;;45.08;33.22;;;;;;;15.77;34.30;95125.41;5057015;28;20048;-54
2021/11/18 07:47:43;;;;;;;43.88;34.08;;;;;;;15.72;34.63;95136.84;5023576;28;20386;-50
2021/11/18 07:50:13;;;;;;;41.10;32.90;;;;;;;15.96;34.27;95142.59;5072437;28;20044;-56
2021/11/18 07:52:44;;;;;;;41.90;32.63;;;;;;;15.85;34.87;95130.72;5053649;28;20080;-55
2021/11/18 07:55:14;;;;;;;38.15;30.70;;;;;;;15.76;34.40;95139.66;5072556;28;20049;-50
2021/11/18 07:57:41;;;;;;;39.25;30.50;;;;;;;15.83;34.45;95137.38;5071343;28;20064;-51
2021/11/18 08:00:11;;;;;;;35.80;30.17;;;;;;;15.87;34.18;95139.09;5072345;28;20052;-53
2021/11/18 08:02:48;;;;;;;35.67;29.45;;;;;;;16.04;33.99;95139.22;5056338;28;20060;-50
2021/11/18 08:05:39;;;;;;;35.42;27.88;;;;;;;15.98;33.97;95140.44;5056892;28;20513;-48
2021/11/18 08:08:06;;;;;;;32.35;27.73;;;;;;;15.85;34.42;95130.72;5056148;28;20455;-50
2021/11/18 08:10:33;;;;;;;31.33;26.55;;;;;;;16.37;33.39;95136.28;5072161;28;20052;-50
2021/11/18 08:13:01;;;;;;;32.92;26.85;;;;;;;16.11;34.19;95135.38;5071838;28;20412;-50
2021/11/18 08:15:28;;;;;;;35.30;27.15;;;;;;;16.33;34.13;95135.34;5072011;28;20048;-49
2021/11/18 08:17:56;;;;;;;35.47;25.75;;;;;;;16.38;33.80;95137.84;5071189;28;20052;-50
2021/11/18 08:20:24;;;;;;;35.55;25.70;;;;;;;16.47;33.29;95138.69;5055356;28;20044;-54
2021/11/18 08:22:54;;;;;;;34.72;23.70;;;;;;;16.31;33.38;95140.91;5047554;28;20076;-53
2021/11/18 08:25:24;;;;;;;30.85;23.17;;;;;;;16.56;33.70;95144.75;5056209;28;20399;-48
2021/11/18 08:27:51;;;;;;;28.73;22.63;;;;;;;16.57;33.26;95154.25;5055367;28;20053;-55
2021/11/18 08:30:23;;;;;;;30.50;23.42;;;;;;;16.57;33.30;95151.59;5070435;28;20083;-53
2021/11/18 08:32:53;;;;;;;31.33;21.83;;;;;;;16.78;33.06;95151.88;5050674;28;20376;-50
2021/11/18 08:35:31;;;;;;;29.65;20.80;;;;;;;16.64;32.99;95151.94;5018863;28;20052;-53
2021/11/18 08:38:10;;;;;;;28.15;20.38;;;;;;;16.78;32.57;95161.66;5018720;28;20054;-50
2021/11/18 08:40:54;;;;;;;27.70;21.17;;;;;;;16.15;33.75;95166.16;5018587;28;20046;-49
2021/11/18 08:43:22;;;;;;;;;;;;;;;16.39;33.62;95157.88;5053495;28;20344;-51
2021/11/18 08:45:52;;;;;;;32.13;24.35;;;;;;;16.61;33.18;95167.59;5054734;28;20337;-49
2021/11/18 08:48:19;;;;;;;36.22;23.20;;;;;;;16.94;32.85;95160.16;5071410;28;20456;-52
2021/11/18 08:50:50;;;;;;;29.15;23.40;;;;;;;17.00;32.77;95156.28;5068106;28;20055;-50
2021/11/18 08:53:23;;;;;;;31.48;23.25;;;;;;;16.95;32.83;95159.06;5068300;28;20049;-51
2021/11/18 08:55:51;;;;;;;25.10;22.27;;;;;;;17.04;33.07;95154.59;5071240;28;20056;-49
2021/11/18 08:58:22;;;;;;;27.45;20.92;;;;;;;17.19;32.60;95159.44;5054035;28;20048;-52
2021/11/18 09:01:13;;;;;;;28.20;22.10;;;;;;;17.42;32.20;95162.72;5054414;28;20049;-51
2021/11/18 09:03:43;;;;;;;28.10;21.45;;;;;;;17.49;32.30;95163.06;5059965;28;20056;-53
2021/11/18 09:06:15;;;;;;;25.45;19.58;;;;;;;17.29;32.60;95155.72;5037714;28;20061;-48
2021/11/18 09:08:48;;;;;;;22.73;20.15;;;;;;;17.33;32.74;95155.88;5054402;28;20045;-48
2021/11/18 09:11:16;;;;;;;22.50;17.85;;;;;;;17.41;32.66;95168.31;5055203;28;20049;-49
2021/11/18 09:13:48;;;;;;;22.33;17.35;;;;;;;17.11;33.03;95162.81;5053737;28;20049;-51
2021/11/18 09:16:17;;;;;;;22.42;17.50;;;;;;;17.04;33.73;95159.09;5054408;28;20049;-53
2021/11/18 09:18:55;;;;;;;18.13;16.23;;;;;;;17.37;32.82;95160.22;5054309;28;20045;-53
2021/11/18 09:21:25;;;;;;;18.42;16.52;;;;;;;17.48;32.45;95163.38;5053915;28;20064;-52
2021/11/18 09:23:57;;;;;;;19.50;17.20;;;;;;;17.29;33.08;95166.28;5053838;28;20115;-48
2021/11/18 09:26:28;;;;;;;18.50;15.85;;;;;;;17.95;31.99;95171.47;5054176;28;20041;-49
2021/11/18 09:28:57;;;;;;;19.48;16.17;;;;;;;17.62;32.94;95174.56;5037403;28;20049;-49
2021/11/18 09:31:47;;;;;;;19.83;16.65;;;;;;;18.06;31.62;95162.13;5053909;28;20056;-52
2021/11/18 09:34:15;;;;;;;19.42;17.38;;;;;;;17.88;32.26;95171.94;5054143;28;20487;-49
2021/11/18 09:36:42;;;;;;;20.00;18.00;;;;;;;17.77;32.51;95166.19;5053588;28;20048;-51
2021/11/18 09:39:10;;;;;;;20.60;17.77;;;;;;;17.71;32.66;95167.44;5053835;28;20045;-52
2021/11/18 09:41:45;;;;;;;21.80;18.02;;;;;;;17.80;32.76;95165.56;5054490;28;20053;-48
2021/11/18 09:44:31;;;;;;;19.92;17.45;;;;;;;17.97;32.57;95164.03;5053961;28;20053;-49
2021/11/18 09:47:18;;;;;;;22.23;17.52;;;;;;;17.95;32.79;95160.88;5053340;28;20052;-49
2021/11/18 09:50:19;;;;;;;23.63;18.02;;;;;;;17.99;32.92;95159.19;5036940;28;20041;-52
2021/11/18 09:53:29;;;;;;;24.67;18.20;;;;;;;17.71;33.07;95156.88;5007969;28;20479;-51
2021/11/18 09:56:22;;;;;;;21.40;18.40;;;;;;;17.81;32.96;95161.06;5033577;28;20080;-53
2021/11/18 09:59:11;;;;;;;22.75;19.13;;;;;;;17.84;33.31;95161.22;5049891;28;20060;-49
2021/11/18 10:02:22;;;;;;;23.55;19.40;;;;;;;18.35;32.22;95164.88;5048454;28;20060;-50
2021/11/18 10:05:11;;;;;;;29.02;21.02;;;;;;;17.80;32.97;95152.34;5034829;28;20356;-48
2021/11/18 10:07:50;;;;;;;21.45;17.85;;;;;;;18.33;32.36;95151.16;5036157;28;20060;-55
2021/11/18 10:10:29;;;;;;;20.00;17.95;;;;;;;18.55;31.76;95146.75;5036576;28;20371;-51
2021/11/18 10:13:23;;;;;;;19.48;17.13;;;;;;;18.33;32.61;95137.94;5039477;28;20049;-54
2021/11/18 10:15:58;;;;;;;21.10;16.95;;;;;;;18.40;32.13;95137.44;5033590;28;20056;-48
2021/11/18 10:18:36;;;;;;;22.38;17.58;;;;;;;18.64;31.87;95134.28;5050223;28;20383;-48
2021/11/18 10:21:24;;;;;;;19.90;16.75;;;;;;;18.51;31.41;95129.94;5033373;28;20053;-49
2021/11/18 10:23:58;;;;;;;22.73;17.65;;;;;;;18.91;31.22;95133.84;5034059;28;20060;-48
2021/11/18 10:26:32;;;;;;;25.10;18.67;;;;;;;18.59;31.20;95134.44;5034181;28;20049;-48
2021/11/18 10:29:11;;;;;;;22.00;18.67;;;;;;;18.80;30.93;95124.72;5034008;28;20056;-48
2021/11/18 10:32:11;;;;;;;22.55;19.08;;;;;;;18.68;31.03;95127.25;5033829;28;20364;-49
2021/11/18 10:34:58;;;;;;;22.98;18.85;;;;;;;18.79;31.17;95126.59;5026012;28;20045;-49
2021/11/18 10:37:32;;;;;;;25.42;18.52;;;;;;;18.65;31.16;95127.88;5034189;28;20060;-47
2021/11/18 10:40:11;;;;;;;20.48;18.25;;;;;;;18.89;30.54;95120.13;5034085;28;20053;-48
2021/11/18 10:42:49;;;;;;;19.87;16.27;;;;;;;19.09;29.93;95118.63;5033829;28;20057;-53
2021/11/18 10:45:37;;;;;;;20.40;16.25;;;;;;;19.04;29.96;95122.25;5016133;28;20303;-53
2021/11/18 10:48:33;;;;;;;18.02;15.85;;;;;;;19.25;29.63;95116.94;5034106;28;20060;-55
2021/11/18 10:51:13;;;;;;;18.52;16.52;;;;;;;19.17;29.59;95112.47;5032424;28;20056;-51
2021/11/18 10:53:58;;;;;;;20.27;16.17;;;;;;;19.21;29.65;95115.25;5050663;28;20447;-49
2021/11/18 10:56:45;;;;;;;18.10;15.55;;;;;;;21.20;26.24;95112.13;5053930;28;20044;-54
2021/11/18 10:59:43;;;;;;;21.33;16.38;;;;;;;19.75;28.61;95107.38;5014037;28;20061;-53
2021/11/18 11:02:26;;;;;;;17.60;15.77;;;;;;;19.23;29.05;95113.06;5013809;28;20053;-52
2021/11/18 11:04:59;;;;;;;17.77;15.50;;;;;;;19.58;28.80;95114.41;5012884;28;20061;-52
2021/11/18 11:07:43;;;;;;;19.27;15.57;;;;;;;19.51;28.46;95113.31;5013682;28;20376;-53
2021/11/18 11:10:14;;;;;;;18.92;15.38;;;;;;;19.28;28.35;95097.00;5013897;28;20053;-53
2021/11/18 11:12:54;;;;;;;17.20;15.00;;;;;;;19.82;27.35;95094.41;5024023;28;20061;-49
2021/11/18 11:15:46;;;;;;;17.73;15.45;;;;;;;19.49;27.89;95097.75;5019984;28;20464;-49
2021/11/18 11:18:23;;;;;;;18.67;15.85;;;;;;;19.11;28.18;95092.56;5038059;28;20048;-49
2021/11/18 11:20:59;;;;;;;18.85;16.33;;;;;;;19.36;27.71;95101.44;5019301;28;20037;-49
2021/11/18 11:23:50;;;;;;;18.30;15.75;;;;;;;18.68;28.58;95106.06;5037173;28;20052;-50
2021/11/18 11:26:17;;;;;;;18.95;16.85;;;;;;;18.81;28.33;95102.44;5037369;28;20045;-54
2021/11/18 11:29:06;;;;;;;20.88;17.42;;;;;;;18.96;28.23;95101.84;5037229;28;20053;-52
2021/11/18 11:32:12;;;;;;;18.35;16.45;;;;;;;18.92;28.00;95086.94;5019888;28;20049;-53
2021/11/18 11:34:44;;;;;;;19.55;16.33;;;;;;;18.56;28.74;95104.06;5036073;28;20056;-52
2021/11/18 11:37:43;;;;;;;20.33;17.23;;;;;;;18.78;28.24;95093.25;5016246;28;20448;-53
2021/11/18 11:40:51;;;;;;;22.83;17.83;;;;;;;18.69;28.67;95104.97;4981296;28;20051;-54
2021/11/18 11:43:21;;;;;;;19.70;17.60;;;;;;;18.80;28.07;95100.88;5024855;28;20045;-52